Terminal Aerodrome Forecast
Issued by NWS New Orleans/Baton Rouge, LA

Home | Current Version | Previous Version | Text Only | Print | Product List | Glossary On
Versions: 1 2 3 4 5 6 7 8 9 10 11 12 13
934
FTUS44 KLIX 022340
TAFBTR
TAF
KBTR 022340Z 0300/0324 09005KT P6SM VCSH OVC100
     FM030600 07007KT P6SM -RA OVC050
      TEMPO 0306/0309 4SM -RA OVC025
     FM030900 08010KT P6SM -RA OVC050
     FM032300 10011KT P6SM -RA OVC025=

USA.gov is the U.S. government's official web portal to all federal, state and local government web resources and services.